Time;durP1;ratioP1;P1;durP2;ratioP2;P2;SDS_P1;SDS_P2;PMS_P1;PMS_P2;Temp;Humidity;BMP_temperature;BMP_pressure;BME280_temperature;BME280_humidity;BME280_pressure;Samples;Min_cycle;Max_cycle;Signal;HPM_P1;HPM_P2
2023/05/04 00:02:44;;;;;;;41.20;21.05;;;;;;;;;;6243835;28;20057;-58
2023/05/04 00:05:45;;;;;;;41.95;21.52;;;;;;;;;;6244038;28;20045;-51
2023/05/04 00:08:46;;;;;;;41.45;21.17;;;;;;;;;;6243907;28;20049;-56
2023/05/04 00:11:46;;;;;;;38.83;21.17;;;;;;;;;;6242947;28;20073;-65
2023/05/04 00:14:47;;;;;;;37.20;20.75;;;;;;;;;;6243770;28;20053;-52
2023/05/04 00:17:48;;;;;;;38.28;21.60;;;;;;;;;;6243352;28;20488;-55
2023/05/04 00:20:48;;;;;;;36.97;19.55;;;;;;;;;;6242407;28;20050;-51
2023/05/04 00:23:49;;;;;;;36.58;20.05;;;;;;;;;;6243131;28;20096;-52
2023/05/04 00:26:49;;;;;;;35.33;19.33;;;;;;;;;;6243223;28;20056;-51
2023/05/04 00:29:50;;;;;;;34.83;19.60;;;;;;;;;;6242381;28;20052;-55
2023/05/04 00:32:50;;;;;;;35.05;19.05;;;;;;;;;;6243023;28;20049;-51
2023/05/04 00:35:51;;;;;;;40.20;19.92;;;;;;;;;;6243123;28;20481;-54
2023/05/04 00:38:53;;;;;;;34.47;19.02;;;;;;;;;;6242515;28;20053;-58
2023/05/04 00:41:54;;;;;;;35.53;19.45;;;;;;;;;;6241886;28;20132;-53
2023/05/04 00:44:54;;;;;;;34.10;19.42;;;;;;;;;;6242874;28;20055;-53
2023/05/04 00:47:55;;;;;;;34.97;18.23;;;;;;;;;;6242545;28;20373;-57
2023/05/04 00:50:56;;;;;;;36.03;20.02;;;;;;;;;;6242395;28;20095;-61
2023/05/04 00:53:57;;;;;;;37.15;19.67;;;;;;;;;;6242762;28;20100;-53
2023/05/04 00:56:58;;;;;;;34.53;19.83;;;;;;;;;;6242709;28;20088;-50
2023/05/04 00:59:58;;;;;;;33.42;18.52;;;;;;;;;;6241676;28;20130;-53
2023/05/04 01:02:59;;;;;;;38.13;20.52;;;;;;;;;;6242669;28;20049;-54
2023/05/04 01:06:25;;;;;;;37.05;21.00;;;;;;;;;;6242618;28;20068;-51
2023/05/04 01:09:34;;;;;;;40.20;19.70;;;;;;;;;;6242231;28;20133;-52
2023/05/04 01:12:46;;;;;;;37.88;20.25;;;;;;;;;;6241588;28;20053;-52
2023/05/04 01:15:48;;;;;;;38.28;19.15;;;;;;;;;;6242271;28;20543;-53
2023/05/04 01:18:49;;;;;;;36.22;19.42;;;;;;;;;;6243211;28;20046;-52
2023/05/04 01:21:49;;;;;;;39.45;20.30;;;;;;;;;;6241736;28;20056;-52
2023/05/04 01:24:50;;;;;;;42.35;21.48;;;;;;;;;;6241981;28;20096;-51
2023/05/04 01:28:00;;;;;;;43.55;20.95;;;;;;;;;;6242595;28;20049;-58
2023/05/04 01:31:02;;;;;;;37.47;20.60;;;;;;;;;;6242063;28;20132;-50
2023/05/04 01:34:04;;;;;;;;;;;;;;;;;;6242114;28;20056;-52
2023/05/04 01:37:05;;;;;;;39.83;20.50;;;;;;;;;;6242335;28;19921;-62
2023/05/04 01:40:06;;;;;;;42.25;21.95;;;;;;;;;;6242298;28;20053;-50
2023/05/04 01:43:07;;;;;;;42.00;21.33;;;;;;;;;;6241468;28;20065;-51
2023/05/04 01:46:07;;;;;;;40.17;21.02;;;;;;;;;;6242260;28;20454;-58
2023/05/04 01:49:08;;;;;;;41.45;21.35;;;;;;;;;;6242138;28;20496;-53
2023/05/04 01:52:08;;;;;;;39.97;22.17;;;;;;;;;;6241402;28;20071;-54
2023/05/04 01:55:09;;;;;;;41.80;22.17;;;;;;;;;;6245077;28;20053;-52
2023/05/04 01:58:09;;;;;;;40.40;22.52;;;;;;;;;;6246965;28;20480;-55
2023/05/04 02:01:10;;;;;;;40.28;22.77;;;;;;;;;;6246437;28;20480;-52
2023/05/04 02:04:11;;;;;;;42.38;20.85;;;;;;;;;;6245737;28;20052;-52
2023/05/04 02:07:12;;;;;;;45.92;21.83;;;;;;;;;;6246828;28;20057;-52
2023/05/04 02:10:13;;;;;;;45.90;22.10;;;;;;;;;;6246514;28;20335;-54
2023/05/04 02:13:13;;;;;;;42.45;20.80;;;;;;;;;;6245510;28;20048;-52
2023/05/04 02:16:14;;;;;;;45.92;21.55;;;;;;;;;;6246255;28;20061;-52
2023/05/04 02:19:15;;;;;;;37.83;19.80;;;;;;;;;;6246379;28;20046;-52
2023/05/04 02:22:15;;;;;;;36.15;19.20;;;;;;;;;;6245758;28;20053;-52
2023/05/04 02:25:16;;;;;;;37.08;20.10;;;;;;;;;;6245789;28;20502;-56
2023/05/04 02:28:16;;;;;;;37.08;19.00;;;;;;;;;;6246418;28;20053;-52
2023/05/04 02:31:17;;;;;;;35.60;20.33;;;;;;;;;;6245934;28;20516;-53
2023/05/04 02:34:17;;;;;;;48.15;19.15;;;;;;;;;;6245117;28;20053;-51
2023/05/04 02:37:18;;;;;;;135.32;23.00;;;;;;;;;;6246048;28;20154;-51
2023/05/04 02:40:19;;;;;;;37.67;19.15;;;;;;;;;;6245491;28;20053;-54
2023/05/04 02:43:19;;;;;;;35.03;18.75;;;;;;;;;;6245046;28;20065;-51
2023/05/04 02:46:20;;;;;;;34.03;17.48;;;;;;;;;;6245750;28;20500;-54
2023/05/04 02:49:21;;;;;;;32.30;16.67;;;;;;;;;;6245669;28;20053;-54
2023/05/04 02:52:21;;;;;;;37.50;18.30;;;;;;;;;;6244766;28;20057;-51
2023/05/04 02:55:22;;;;;;;35.53;19.15;;;;;;;;;;6245342;28;20091;-58
2023/05/04 02:58:22;;;;;;;45.47;18.65;;;;;;;;;;6245619;28;20041;-54
2023/05/04 03:01:23;;;;;;;87.72;19.60;;;;;;;;;;6244880;28;20041;-52
2023/05/04 03:04:23;;;;;;;51.13;18.27;;;;;;;;;;6244721;28;20053;-53
2023/05/04 03:07:24;;;;;;;33.00;16.77;;;;;;;;;;6244513;28;20057;-51
2023/05/04 03:10:25;;;;;;;34.00;17.67;;;;;;;;;;6244939;28;20048;-52
2023/05/04 03:13:26;;;;;;;32.63;18.20;;;;;;;;;;6244139;28;20144;-55
2023/05/04 03:16:26;;;;;;;29.15;16.67;;;;;;;;;;6244882;28;20068;-62
2023/05/04 03:19:27;;;;;;;32.35;17.20;;;;;;;;;;6245465;28;20045;-64
2023/05/04 03:22:27;;;;;;;33.63;17.42;;;;;;;;;;6244044;28;20050;-51
2023/05/04 03:25:28;;;;;;;31.75;17.35;;;;;;;;;;6244758;28;20107;-64
2023/05/04 03:28:28;;;;;;;32.90;17.13;;;;;;;;;;6244805;28;20072;-52
2023/05/04 03:31:29;;;;;;;31.70;17.13;;;;;;;;;;6243982;28;20049;-52
2023/05/04 03:34:30;;;;;;;33.83;17.15;;;;;;;;;;6244204;28;20053;-53
2023/05/04 03:37:31;;;;;;;36.28;18.27;;;;;;;;;;6244519;28;20481;-51
2023/05/04 03:40:32;;;;;;;34.28;18.58;;;;;;;;;;6244317;28;20056;-55
2023/05/04 03:43:32;;;;;;;36.00;18.53;;;;;;;;;;6243620;28;20057;-58
2023/05/04 03:46:33;;;;;;;35.67;17.42;;;;;;;;;;6244412;28;20046;-52
2023/05/04 03:49:34;;;;;;;34.55;17.27;;;;;;;;;;6244107;28;20059;-50
2023/05/04 03:52:34;;;;;;;39.25;18.50;;;;;;;;;;6243394;28;20049;-55
2023/05/04 03:55:35;;;;;;;33.40;17.27;;;;;;;;;;6243964;28;20053;-55
2023/05/04 03:58:36;;;;;;;33.95;17.33;;;;;;;;;;6244287;28;20459;-51
2023/05/04 04:01:36;;;;;;;32.83;17.90;;;;;;;;;;6243634;28;20069;-52
2023/05/04 04:04:37;;;;;;;34.83;17.95;;;;;;;;;;6243846;28;20046;-54
2023/05/04 04:07:38;;;;;;;35.53;16.90;;;;;;;;;;6243761;28;20111;-53
2023/05/04 04:10:38;;;;;;;30.00;15.95;;;;;;;;;;6243406;28;20099;-52
2023/05/04 04:13:39;;;;;;;35.67;17.92;;;;;;;;;;6242873;28;20404;-54
2023/05/04 04:16:39;;;;;;;28.48;16.92;;;;;;;;;;6243578;28;20053;-53
2023/05/04 04:19:41;;;;;;;32.22;17.02;;;;;;;;;;6243482;28;20049;-53
2023/05/04 04:22:41;;;;;;;34.28;17.70;;;;;;;;;;6242656;28;20072;-57
2023/05/04 04:25:42;;;;;;;30.25;16.15;;;;;;;;;;6243317;28;20447;-53
2023/05/04 04:28:43;;;;;;;31.35;16.60;;;;;;;;;;6243311;28;20096;-62
2023/05/04 04:31:44;;;;;;;35.38;17.75;;;;;;;;;;6242418;28;20447;-53
2023/05/04 04:34:44;;;;;;;31.63;18.10;;;;;;;;;;6243082;28;20045;-50
2023/05/04 04:37:45;;;;;;;34.80;16.83;;;;;;;;;;6243639;28;20122;-57
2023/05/04 04:40:46;;;;;;;28.17;15.93;;;;;;;;;;6242906;28;20049;-62
2023/05/04 04:43:46;;;;;;;31.80;16.63;;;;;;;;;;6242708;28;20048;-58
2023/05/04 04:46:47;;;;;;;31.77;16.10;;;;;;;;;;6242924;28;20041;-53
2023/05/04 04:49:48;;;;;;;29.10;15.35;;;;;;;;;;6242711;28;20042;-52
2023/05/04 04:52:48;;;;;;;36.33;18.10;;;;;;;;;;6242223;28;20049;-55
2023/05/04 04:55:49;;;;;;;31.17;17.88;;;;;;;;;;6242805;28;20045;-63
2023/05/04 04:58:49;;;;;;;35.25;19.27;;;;;;;;;;6242872;28;20053;-52
2023/05/04 05:01:50;;;;;;;35.25;19.02;;;;;;;;;;6241787;28;20136;-58
2023/05/04 05:04:51;;;;;;;36.47;19.50;;;;;;;;;;6242445;28;20111;-55
2023/05/04 05:07:51;;;;;;;41.50;20.60;;;;;;;;;;6242830;28;20068;-52
2023/05/04 05:10:52;;;;;;;38.63;20.02;;;;;;;;;;6242011;28;20057;-54
2023/05/04 05:13:53;;;;;;;34.92;19.23;;;;;;;;;;6242128;28;20049;-56
2023/05/04 05:16:53;;;;;;;32.13;18.70;;;;;;;;;;6242321;28;20463;-52
2023/05/04 05:19:54;;;;;;;27.30;15.48;;;;;;;;;;6240072;28;20045;-52
2023/05/04 05:22:54;;;;;;;27.88;15.82;;;;;;;;;;6241672;28;20061;-54
2023/05/04 05:25:55;;;;;;;23.85;13.18;;;;;;;;;;6242260;28;20052;-54
2023/05/04 05:28:56;;;;;;;20.92;11.52;;;;;;;;;;6245614;28;20439;-57
2023/05/04 05:31:57;;;;;;;15.60;8.02;;;;;;;;;;6249427;28;20099;-56
2023/05/04 05:34:57;;;;;;;14.40;7.13;;;;;;;;;;6250611;28;20045;-53
2023/05/04 05:37:58;;;;;;;16.20;6.57;;;;;;;;;;6250489;28;20045;-63
2023/05/04 05:40:58;;;;;;;11.70;6.60;;;;;;;;;;6249519;28;20455;-53
2023/05/04 05:44:00;;;;;;;11.73;5.95;;;;;;;;;;6249899;28;20046;-52
2023/05/04 05:47:01;;;;;;;11.82;6.03;;;;;;;;;;6250758;28;20060;-51
2023/05/04 05:50:03;;;;;;;12.03;6.10;;;;;;;;;;6250253;28;20447;-53
2023/05/04 05:53:03;;;;;;;11.95;6.88;;;;;;;;;;6249323;28;20120;-53
2023/05/04 05:56:04;;;;;;;13.40;7.05;;;;;;;;;;6250121;28;20096;-56
2023/05/04 05:59:05;;;;;;;13.35;7.93;;;;;;;;;;6250103;28;20400;-51
2023/05/04 06:02:06;;;;;;;14.15;7.57;;;;;;;;;;6249486;28;20123;-51
2023/05/04 06:05:06;;;;;;;16.15;8.02;;;;;;;;;;6250120;28;20056;-52
2023/05/04 06:08:07;;;;;;;12.80;6.63;;;;;;;;;;6250182;28;20045;-54
2023/05/04 06:11:08;;;;;;;10.40;6.20;;;;;;;;;;6249299;28;20056;-55
2023/05/04 06:14:08;;;;;;;10.10;6.05;;;;;;;;;;6249482;28;20045;-55
2023/05/04 06:17:09;;;;;;;11.52;6.10;;;;;;;;;;6250021;28;20053;-60
2023/05/04 06:20:11;;;;;;;14.38;5.95;;;;;;;;;;6249736;28;20077;-53
2023/05/04 06:23:16;;;;;;;10.63;5.60;;;;;;;;;;6249288;28;20053;-54
2023/05/04 06:26:18;;;;;;;11.90;6.53;;;;;;;;;;6249871;28;20053;-55
2023/05/04 06:29:19;;;;;;;11.02;6.32;;;;;;;;;;6250004;28;20052;-52
2023/05/04 06:32:20;;;;;;;10.35;5.43;;;;;;;;;;6248894;28;20482;-53
2023/05/04 06:35:20;;;;;;;9.50;5.25;;;;;;;;;;6249940;28;20131;-55
2023/05/04 06:38:21;;;;;;;8.45;4.50;;;;;;;;;;6250270;28;20048;-51
2023/05/04 06:41:21;;;;;;;8.65;4.60;;;;;;;;;;6244847;28;20094;-51
2023/05/04 06:44:22;;;;;;;12.13;5.90;;;;;;;;;;6245463;28;20050;-51
2023/05/04 06:47:23;;;;;;;8.00;4.90;;;;;;;;;;6245759;28;20049;-50
2023/05/04 06:50:24;;;;;;;10.82;5.22;;;;;;;;;;6245507;28;20057;-56
2023/05/04 06:53:24;;;;;;;9.15;5.55;;;;;;;;;;6244957;28;20056;-67
2023/05/04 06:56:25;;;;;;;9.30;4.47;;;;;;;;;;6245592;28;20059;-51
2023/05/04 06:59:26;;;;;;;9.25;4.65;;;;;;;;;;6245544;28;20048;-55
2023/05/04 07:02:26;;;;;;;11.57;4.80;;;;;;;;;;6245180;28;20137;-51
2023/05/04 07:05:27;;;;;;;9.57;4.70;;;;;;;;;;6245621;28;20060;-51
2023/05/04 07:08:28;;;;;;;6.80;3.83;;;;;;;;;;6245771;28;20076;-55
2023/05/04 07:11:29;;;;;;;8.95;3.92;;;;;;;;;;6244802;28;20045;-61
2023/05/04 07:14:30;;;;;;;7.57;3.40;;;;;;;;;;6245158;28;20129;-58
2023/05/04 07:17:31;;;;;;;7.88;3.15;;;;;;;;;;6245298;28;20057;-51
2023/05/04 07:20:32;;;;;;;6.70;3.30;;;;;;;;;;6245141;28;20053;-54
2023/05/04 07:23:32;;;;;;;8.85;4.13;;;;;;;;;;6244509;28;20119;-55
2023/05/04 07:26:33;;;;;;;8.60;3.88;;;;;;;;;;6244799;28;20127;-54
2023/05/04 07:29:34;;;;;;;7.82;4.10;;;;;;;;;;6244513;28;20060;-56
2023/05/04 07:32:34;;;;;;;6.47;3.33;;;;;;;;;;6243740;28;20524;-53
2023/05/04 07:35:35;;;;;;;6.93;3.55;;;;;;;;;;6244798;28;20045;-52
2023/05/04 07:38:36;;;;;;;6.18;3.20;;;;;;;;;;6244889;28;20051;-53
2023/05/04 07:41:36;;;;;;;5.53;3.17;;;;;;;;;;6243361;28;20048;-50
2023/05/04 07:44:37;;;;;;;7.03;3.40;;;;;;;;;;6244402;28;20145;-59
2023/05/04 07:47:38;;;;;;;5.22;3.00;;;;;;;;;;6244389;28;20408;-51
2023/05/04 07:50:39;;;;;;;5.55;2.92;;;;;;;;;;6244513;28;20045;-54
2023/05/04 07:53:39;;;;;;;5.25;3.40;;;;;;;;;;6243336;28;20046;-57
2023/05/04 07:56:40;;;;;;;7.25;4.43;;;;;;;;;;6244248;28;20053;-54
2023/05/04 07:59:41;;;;;;;6.60;3.10;;;;;;;;;;6244379;28;20377;-52
2023/05/04 08:02:41;;;;;;;5.95;3.00;;;;;;;;;;6243537;28;20056;-56
2023/05/04 08:05:42;;;;;;;7.95;4.68;;;;;;;;;;6244130;28;20050;-56
2023/05/04 08:08:43;;;;;;;7.05;2.88;;;;;;;;;;6243912;28;20084;-53
2023/05/04 08:11:48;;;;;;;5.82;3.30;;;;;;;;;;6243036;28;20042;-53
2023/05/04 08:14:49;;;;;;;6.03;3.03;;;;;;;;;;6243191;28;20140;-55
2023/05/04 08:17:49;;;;;;;5.75;3.28;;;;;;;;;;6243629;28;20052;-55
2023/05/04 08:20:50;;;;;;;6.20;3.30;;;;;;;;;;6243378;28;20053;-52
2023/05/04 08:23:51;;;;;;;7.78;3.53;;;;;;;;;;6242793;28;20352;-59
2023/05/04 08:26:52;;;;;;;6.88;3.05;;;;;;;;;;6243581;28;20049;-51
2023/05/04 08:29:53;;;;;;;6.57;3.08;;;;;;;;;;6243184;28;20050;-53
2023/05/04 08:32:56;;;;;;;7.28;3.50;;;;;;;;;;6242391;28;20041;-52
2023/05/04 08:35:57;;;;;;;6.72;2.97;;;;;;;;;;6243698;28;20050;-54
2023/05/04 08:38:57;;;;;;;7.28;3.90;;;;;;;;;;6242204;28;20045;-54
2023/05/04 08:41:58;;;;;;;8.52;4.00;;;;;;;;;;6242202;28;20045;-53
2023/05/04 08:44:59;;;;;;;5.55;3.20;;;;;;;;;;6242808;28;20122;-55
2023/05/04 08:48:00;;;;;;;6.45;3.00;;;;;;;;;;6243191;28;20053;-57
2023/05/04 08:51:03;;;;;;;6.18;2.90;;;;;;;;;;6242715;28;20403;-53
2023/05/04 08:54:09;;;;;;;6.32;3.20;;;;;;;;;;6242331;28;20045;-51
2023/05/04 08:57:11;;;;;;;8.23;3.63;;;;;;;;;;6242959;28;20141;-58
2023/05/04 09:00:15;;;;;;;5.55;3.03;;;;;;;;;;6243099;28;20128;-56
2023/05/04 09:03:16;;;;;;;8.35;3.70;;;;;;;;;;6240951;28;20488;-55
2023/05/04 09:06:17;;;;;;;7.50;4.22;;;;;;;;;;6242850;28;20480;-57
2023/05/04 09:09:20;;;;;;;6.15;3.95;;;;;;;;;;6242683;28;20065;-55
2023/05/04 09:12:21;;;;;;;12.02;5.60;;;;;;;;;;6241913;28;20393;-52
2023/05/04 09:15:22;;;;;;;7.30;3.88;;;;;;;;;;6242114;28;20077;-55
2023/05/04 09:18:33;;;;;;;5.38;3.53;;;;;;;;;;6242576;28;20053;-55
2023/05/04 09:21:34;;;;;;;5.82;3.75;;;;;;;;;;6242247;28;20053;-55
2023/05/04 09:24:35;;;;;;;6.25;3.70;;;;;;;;;;6241502;28;20049;-52
2023/05/04 09:27:36;;;;;;;8.32;4.20;;;;;;;;;;6242516;28;20050;-55
2023/05/04 09:30:36;;;;;;;6.97;4.15;;;;;;;;;;6242316;28;20049;-54
2023/05/04 09:33:37;;;;;;;8.82;4.85;;;;;;;;;;6241515;28;20048;-57
2023/05/04 09:36:37;;;;;;;7.18;4.40;;;;;;;;;;6242021;28;20045;-56
2023/05/04 09:39:54;;;;;;;10.02;4.55;;;;;;;;;;6242467;28;20053;-53
2023/05/04 09:42:55;;;;;;;7.47;3.60;;;;;;;;;;6242002;28;20045;-52
2023/05/04 09:45:56;;;;;;;6.38;3.55;;;;;;;;;;6241475;28;20056;-55
2023/05/04 09:48:57;;;;;;;8.70;3.28;;;;;;;;;;6242232;28;20472;-57
2023/05/04 09:52:01;;;;;;;4.73;3.00;;;;;;;;;;6241964;28;20042;-62
2023/05/04 09:55:03;;;;;;;6.72;3.40;;;;;;;;;;6241451;28;20045;-54
2023/05/04 09:58:04;;;;;;;7.95;3.15;;;;;;;;;;6242033;28;20105;-59
2023/05/04 10:01:05;;;;;;;6.47;3.25;;;;;;;;;;6242132;28;20532;-54
2023/05/04 10:04:06;;;;;;;8.57;3.42;;;;;;;;;;6241576;28;20056;-55
2023/05/04 10:07:06;;;;;;;7.78;3.47;;;;;;;;;;6241858;28;20049;-55
2023/05/04 10:10:08;;;;;;;6.80;4.15;;;;;;;;;;6242133;28;20057;-61
2023/05/04 10:13:09;;;;;;;;;;;;;;;;;;6242373;28;20047;-54
2023/05/04 10:16:30;;;;;;;7.03;2.90;;;;;;;;;;6244677;28;19921;-55
2023/05/04 10:19:51;;;;;;;7.28;3.35;;;;;;;;;;6246384;28;20485;-56
2023/05/04 10:23:27;;;;;;;5.80;3.10;;;;;;;;;;6246923;28;20053;-55
2023/05/04 10:26:46;;;;;;;6.93;3.30;;;;;;;;;;6246667;28;20052;-58
2023/05/04 10:29:49;;;;;;;7.20;3.45;;;;;;;;;;6245200;28;20057;-53
2023/05/04 10:32:56;;;;;;;8.10;4.43;;;;;;;;;;6246186;28;20053;-57
2023/05/04 10:35:57;;;;;;;6.95;3.80;;;;;;;;;;6246063;28;20506;-55
2023/05/04 10:38:58;;;;;;;5.35;3.08;;;;;;;;;;6245717;28;20049;-60
2023/05/04 10:41:59;;;;;;;6.22;3.30;;;;;;;;;;6245313;28;20420;-52
2023/05/04 10:44:59;;;;;;;5.95;3.42;;;;;;;;;;6246172;28;20581;-62
2023/05/04 10:48:01;;;;;;;6.45;3.17;;;;;;;;;;6245590;28;20049;-53
2023/05/04 10:51:01;;;;;;;4.80;3.00;;;;;;;;;;6244893;28;20171;-55
2023/05/04 10:54:02;;;;;;;6.05;3.10;;;;;;;;;;6245958;28;20519;-52
2023/05/04 10:57:05;;;;;;;5.15;2.75;;;;;;;;;;6246125;28;20052;-57
2023/05/04 11:00:08;;;;;;;10.02;3.17;;;;;;;;;;6244758;28;20132;-58
2023/05/04 11:03:10;;;;;;;5.93;3.10;;;;;;;;;;6243916;28;20076;-51
2023/05/04 11:06:19;;;;;;;5.40;3.15;;;;;;;;;;6245688;28;20048;-53
2023/05/04 11:09:19;;;;;;;7.65;2.80;;;;;;;;;;6245229;28;20050;-57
2023/05/04 11:12:20;;;;;;;6.57;2.80;;;;;;;;;;6244540;28;20076;-56
2023/05/04 11:15:21;;;;;;;10.75;3.65;;;;;;;;;;6245189;28;20559;-55
2023/05/04 11:18:36;;;;;;;6.37;3.23;;;;;;;;;;6245426;28;20057;-56
2023/05/04 11:21:36;;;;;;;5.70;2.90;;;;;;;;;;6243986;28;20408;-60
2023/05/04 11:24:41;;;;;;;6.40;3.42;;;;;;;;;;6245121;28;20053;-54
2023/05/04 11:27:43;;;;;;;8.25;3.60;;;;;;;;;;6244278;28;20049;-58
2023/05/04 11:30:46;;;;;;;7.32;3.25;;;;;;;;;;6244421;28;20449;-53
2023/05/04 11:33:47;;;;;;;6.72;3.35;;;;;;;;;;6244006;28;20041;-54
2023/05/04 11:36:48;;;;;;;6.75;3.13;;;;;;;;;;6244773;28;20046;-55
2023/05/04 11:39:49;;;;;;;8.68;3.15;;;;;;;;;;6244774;28;20061;-65
2023/05/04 11:42:55;;;;;;;7.88;3.70;;;;;;;;;;6243514;28;20048;-60
2023/05/04 11:45:58;;;;;;;5.78;3.30;;;;;;;;;;6244550;28;20111;-54
2023/05/04 11:48:59;;;;;;;5.80;3.25;;;;;;;;;;6244376;28;20055;-53
2023/05/04 11:52:09;;;;;;;5.33;3.20;;;;;;;;;;6243427;28;20139;-52
2023/05/04 11:55:25;;;;;;;7.55;3.42;;;;;;;;;;6244250;28;20046;-53
2023/05/04 11:58:25;;;;;;;7.55;3.88;;;;;;;;;;6244074;28;20053;-55
2023/05/04 12:01:33;;;;;;;6.82;3.55;;;;;;;;;;6244016;28;20623;-64
2023/05/04 12:04:34;;;;;;;7.60;3.33;;;;;;;;;;6243343;28;20056;-53
2023/05/04 12:07:35;;;;;;;7.63;3.25;;;;;;;;;;6243881;28;20053;-54
2023/05/04 12:10:36;;;;;;;5.03;3.30;;;;;;;;;;6243932;28;20049;-55
2023/05/04 12:13:37;;;;;;;6.07;3.15;;;;;;;;;;6243103;28;20038;-53
2023/05/04 12:16:38;;;;;;;6.18;3.00;;;;;;;;;;6243185;28;20057;-56
2023/05/04 12:19:53;;;;;;;4.70;2.70;;;;;;;;;;6243721;28;20502;-56
2023/05/04 12:22:56;;;;;;;13.02;4.35;;;;;;;;;;6243718;28;20052;-55
2023/05/04 12:25:56;;;;;;;8.45;3.20;;;;;;;;;;6243140;28;20171;-53
2023/05/04 12:28:57;;;;;;;5.65;2.75;;;;;;;;;;6243981;28;20042;-53
2023/05/04 12:31:58;;;;;;;9.45;4.53;;;;;;;;;;6243717;28;20046;-60
2023/05/04 12:34:58;;;;;;;5.88;3.13;;;;;;;;;;6242354;28;20488;-56
2023/05/04 12:37:59;;;;;;;5.10;3.20;;;;;;;;;;6242291;28;20076;-55
2023/05/04 12:41:03;;;;;;;4.30;2.55;;;;;;;;;;6243466;28;20385;-54
2023/05/04 12:44:03;;;;;;;7.40;3.30;;;;;;;;;;6242926;28;20049;-52
2023/05/04 12:47:04;;;;;;;7.40;3.75;;;;;;;;;;6242788;28;20098;-55
2023/05/04 12:50:05;;;;;;;6.18;3.10;;;;;;;;;;6243169;28;20053;-61
2023/05/04 12:53:06;;;;;;;6.97;3.33;;;;;;;;;;6242570;28;20042;-58
2023/05/04 12:56:06;;;;;;;5.65;3.67;;;;;;;;;;6238700;28;20103;-55
2023/05/04 12:59:07;;;;;;;6.40;3.25;;;;;;;;;;6242211;28;20072;-57
2023/05/04 13:02:08;;;;;;;8.63;4.13;;;;;;;;;;6239638;28;20054;-60
2023/05/04 13:08:18;;;;;;;6.90;3.42;;;;;;;;;;6480299;22;20553;-56
2023/05/04 13:11:19;;;;;;;6.57;3.35;;;;;;;;;;6229420;28;20056;-61
2023/05/04 13:14:20;;;;;;;5.88;3.08;;;;;;;;;;6223810;28;20419;-59
2023/05/04 13:17:21;;;;;;;6.88;3.58;;;;;;;;;;6229978;28;20045;-60
2023/05/04 13:20:21;;;;;;;7.32;4.60;;;;;;;;;;6229687;28;20057;-58
2023/05/04 13:23:23;;;;;;;7.83;3.80;;;;;;;;;;6227492;28;20132;-60
2023/05/04 13:26:23;;;;;;;6.93;3.70;;;;;;;;;;6228353;28;20045;-60
2023/05/04 13:29:24;;;;;;;6.90;4.33;;;;;;;;;;6217088;28;20296;-60
2023/05/04 13:32:27;;;;;;;6.03;3.37;;;;;;;;;;6221188;28;20054;-60
2023/05/04 13:35:28;;;;;;;7.60;4.30;;;;;;;;;;6219833;28;20038;-60
2023/05/04 13:38:28;;;;;;;7.63;4.07;;;;;;;;;;6220086;28;20045;-60
2023/05/04 13:41:29;;;;;;;9.03;4.27;;;;;;;;;;6216804;28;21482;-60
2023/05/04 13:44:30;;;;;;;9.27;4.27;;;;;;;;;;6216737;28;20050;-60
2023/05/04 13:47:33;;;;;;;5.80;3.40;;;;;;;;;;6220594;28;20052;-59
2023/05/04 13:50:33;;;;;;;8.40;3.75;;;;;;;;;;6222646;28;20084;-60
2023/05/04 13:53:34;;;;;;;8.77;3.93;;;;;;;;;;6203989;28;20501;-60
2023/05/04 13:56:34;;;;;;;8.00;3.70;;;;;;;;;;6231616;28;20099;-60
2023/05/04 13:59:35;;;;;;;6.83;3.70;;;;;;;;;;6235823;28;20077;-60
2023/05/04 14:02:36;;;;;;;6.67;3.30;;;;;;;;;;6225913;28;20420;-60
2023/05/04 14:05:36;;;;;;;6.70;3.70;;;;;;;;;;6225712;28;20081;-60
2023/05/04 14:08:37;;;;;;;6.97;3.53;;;;;;;;;;6224494;28;20061;-61
2023/05/04 14:11:38;;;;;;;6.53;3.03;;;;;;;;;;6224953;28;20961;-60
2023/05/04 14:14:38;;;;;;;7.07;3.60;;;;;;;;;;6220947;28;20076;-65
2023/05/04 14:17:39;;;;;;;8.35;3.70;;;;;;;;;;6224407;28;20041;-62
2023/05/04 14:20:39;;;;;;;6.53;3.60;;;;;;;;;;6227416;28;20060;-60
2023/05/04 14:23:41;;;;;;;6.83;3.27;;;;;;;;;;6222330;28;21412;-60
2023/05/04 14:26:41;;;;;;;6.17;3.63;;;;;;;;;;6223706;28;20075;-61
2023/05/04 14:29:42;;;;;;;6.37;3.67;;;;;;;;;;6226049;28;20037;-60
2023/05/04 14:32:42;;;;;;;9.17;5.20;;;;;;;;;;6220761;28;20401;-60
2023/05/04 14:35:44;;;;;;;5.70;3.70;;;;;;;;;;6229265;28;20041;-60
2023/05/04 14:38:45;;;;;;;6.80;3.63;;;;;;;;;;6228346;28;20326;-61
2023/05/04 14:41:46;;;;;;;8.00;4.13;;;;;;;;;;6224084;28;20053;-61
2023/05/04 14:44:46;;;;;;;10.23;5.10;;;;;;;;;;6221343;28;20074;-60
2023/05/04 14:47:47;;;;;;;6.53;4.17;;;;;;;;;;6223629;28;20045;-61
2023/05/04 14:50:47;;;;;;;7.00;3.47;;;;;;;;;;6224509;28;20057;-60
2023/05/04 14:53:48;;;;;;;7.67;4.33;;;;;;;;;;6218317;28;20045;-66
2023/05/04 14:56:51;;;;;;;7.00;3.80;;;;;;;;;;6222588;28;20179;-60
2023/05/04 14:59:51;;;;;;;8.73;4.80;;;;;;;;;;6224438;28;20049;-64
2023/05/04 15:02:52;;;;;;;15.57;7.10;;;;;;;;;;6219441;28;20037;-60
2023/05/04 15:05:52;;;;;;;6.00;3.87;;;;;;;;;;6224965;28;20272;-60
2023/05/04 15:08:53;;;;;;;7.97;4.13;;;;;;;;;;6222169;28;20069;-61
2023/05/04 15:11:54;;;;;;;6.03;3.80;;;;;;;;;;6206729;28;20078;-59
2023/05/04 15:14:54;;;;;;;6.30;3.00;;;;;;;;;;6220522;28;20054;-61
2023/05/04 15:17:55;;;;;;;9.50;4.00;;;;;;;;;;6205159;28;20401;-60
2023/05/04 15:20:56;;;;;;;6.73;3.63;;;;;;;;;;6221963;28;20057;-60
2023/05/04 15:23:56;;;;;;;5.87;3.33;;;;;;;;;;6212688;28;20144;-68
2023/05/04 15:26:57;;;;;;;6.37;3.23;;;;;;;;;;6222030;28;20864;-59
2023/05/04 15:29:58;;;;;;;8.57;4.00;;;;;;;;;;6225020;28;20140;-60
2023/05/04 15:32:58;;;;;;;5.87;3.40;;;;;;;;;;6221484;28;20512;-67
2023/05/04 15:36:05;;;;;;;7.73;3.97;;;;;;;;;;6222463;28;20580;-65
2023/05/04 15:39:07;;;;;;;8.50;4.28;;;;;;;;;;6223296;28;20586;-60
2023/05/04 15:42:09;;;;;;;7.20;4.20;;;;;;;;;;6220101;28;20099;-60
2023/05/04 15:45:10;;;;;;;13.77;7.38;;;;;;;;;;6222435;28;20049;-61
2023/05/04 15:48:10;;;;;;;7.50;4.00;;;;;;;;;;6222834;28;20400;-66
2023/05/04 15:51:11;;;;;;;8.33;3.97;;;;;;;;;;6223351;28;20045;-59
2023/05/04 15:54:12;;;;;;;6.10;3.37;;;;;;;;;;6220883;28;20053;-63
2023/05/04 15:57:13;;;;;;;7.47;3.40;;;;;;;;;;6222222;28;20042;-63
2023/05/04 16:00:15;;;;;;;5.45;3.20;;;;;;;;;;6225113;28;20534;-60
2023/05/04 16:03:15;;;;;;;5.85;3.10;;;;;;;;;;6217367;28;20546;-60
2023/05/04 16:06:16;;;;;;;6.57;3.90;;;;;;;;;;6220758;28;20046;-59
2023/05/04 16:09:19;;;;;;;8.73;4.13;;;;;;;;;;6222091;28;20385;-60
2023/05/04 16:12:19;;;;;;;5.95;3.72;;;;;;;;;;6217006;28;20057;-66
2023/05/04 16:15:20;;;;;;;11.00;4.47;;;;;;;;;;6223979;28;20049;-60
2023/05/04 16:18:21;;;;;;;12.23;4.03;;;;;;;;;;6223855;28;20049;-58
2023/05/04 16:21:21;;;;;;;7.23;3.80;;;;;;;;;;6222528;28;20050;-59
2023/05/04 16:24:22;;;;;;;8.30;4.50;;;;;;;;;;6216604;28;20056;-59
2023/05/04 16:27:25;;;;;;;6.20;3.27;;;;;;;;;;6225658;28;20045;-60
2023/05/04 16:30:31;;;;;;;5.53;3.42;;;;;;;;;;6233075;28;20128;-58
2023/05/04 16:33:31;;;;;;;7.05;3.80;;;;;;;;;;6229832;28;20431;-60
2023/05/04 16:36:32;;;;;;;7.30;3.80;;;;;;;;;;6233553;28;20053;-65
2023/05/04 16:39:33;;;;;;;6.83;3.73;;;;;;;;;;6234264;28;20045;-61
2023/05/04 16:42:34;;;;;;;6.72;4.25;;;;;;;;;;6230520;28;20136;-58
2023/05/04 16:45:35;;;;;;;6.97;4.27;;;;;;;;;;6232207;28;20057;-57
2023/05/04 16:48:36;;;;;;;7.95;3.75;;;;;;;;;;6227607;28;20540;-61
2023/05/04 16:51:40;;;;;;;6.55;3.90;;;;;;;;;;6226604;28;20045;-62
2023/05/04 16:54:40;;;;;;;7.63;4.50;;;;;;;;;;6225502;28;20149;-61
2023/05/04 16:57:41;;;;;;;7.43;4.63;;;;;;;;;;6231183;28;20381;-58
2023/05/04 17:00:42;;;;;;;8.37;4.93;;;;;;;;;;6229879;28;20627;-67
2023/05/04 17:03:42;;;;;;;9.37;5.20;;;;;;;;;;6228177;28;20053;-61
2023/05/04 17:06:44;;;;;;;7.97;4.53;;;;;;;;;;6228841;28;20092;-61
2023/05/04 17:09:45;;;;;;;9.88;5.20;;;;;;;;;;6231112;28;20065;-68
2023/05/04 17:12:46;;;;;;;9.95;5.70;;;;;;;;;;6227653;28;20115;-67
2023/05/04 17:15:47;;;;;;;9.07;5.47;;;;;;;;;;6229253;28;20471;-62
2023/05/04 17:18:47;;;;;;;7.27;5.10;;;;;;;;;;6230487;28;20045;-61
2023/05/04 17:21:48;;;;;;;9.30;5.60;;;;;;;;;;6229589;28;20119;-64
2023/05/04 17:24:50;;;;;;;14.03;6.27;;;;;;;;;;6226913;28;20720;-62
2023/05/04 17:27:50;;;;;;;18.73;7.38;;;;;;;;;;6230682;28;20072;-61
2023/05/04 17:30:51;;;;;;;13.20;6.57;;;;;;;;;;6229795;28;20545;-61
2023/05/04 17:33:51;;;;;;;11.18;5.70;;;;;;;;;;6225052;28;20049;-63
2023/05/04 17:36:52;;;;;;;10.65;6.30;;;;;;;;;;6230131;28;20054;-61
2023/05/04 17:39:53;;;;;;;11.10;6.20;;;;;;;;;;6230470;28;20076;-61
2023/05/04 17:42:54;;;;;;;12.32;6.70;;;;;;;;;;6228305;28;20132;-61
2023/05/04 17:45:54;;;;;;;20.23;6.40;;;;;;;;;;6229119;28;20419;-61
2023/05/04 17:48:55;;;;;;;12.63;7.25;;;;;;;;;;6230138;28;20060;-60
2023/05/04 17:51:56;;;;;;;13.48;7.32;;;;;;;;;;6230745;28;20049;-68
2023/05/04 17:54:57;;;;;;;17.85;9.68;;;;;;;;;;6227167;28;20060;-60
2023/05/04 17:57:57;;;;;;;44.70;21.77;;;;;;;;;;6230494;28;20049;-60
2023/05/04 18:00:58;;;;;;;44.08;19.17;;;;;;;;;;6229569;28;20103;-61